Time;durP1;ratioP1;P1;durP2;ratioP2;P2;SDS_P1;SDS_P2;PMS_P1;PMS_P2;Temp;Humidity;BMP_temperature;BMP_pressure;BME280_temperature;BME280_humidity;BME280_pressure;Samples;Min_cycle;Max_cycle;Signal;HPM_P1;HPM_P2
2021/10/24 00:00:09;;;;;;;26.52;14.35;;;;;;;7.41;100.00;102722.34;4951563;28;20114;-69
2021/10/24 00:02:37;;;;;;;22.33;14.13;;;;;;;7.37;100.00;102722.28;4947078;28;20051;-69
2021/10/24 00:05:05;;;;;;;23.88;13.20;;;;;;;7.34;100.00;102716.91;4949290;28;20050;-69
2021/10/24 00:07:36;;;;;;;23.00;13.80;;;;;;;7.33;100.00;102718.69;4950936;28;20157;-69
2021/10/24 00:10:04;;;;;;;23.08;14.10;;;;;;;7.28;100.00;102720.41;4947938;28;20055;-69
2021/10/24 00:12:32;;;;;;;27.35;13.95;;;;;;;7.23;100.00;102717.69;4942143;28;20185;-69
2021/10/24 00:15:00;;;;;;;24.05;13.02;;;;;;;7.20;100.00;102717.69;4944068;28;20538;-70
2021/10/24 00:17:29;;;;;;;26.02;15.40;;;;;;;7.19;100.00;102720.31;4948296;28;20055;-70
2021/10/24 00:19:57;;;;;;;24.65;14.45;;;;;;;7.18;100.00;102711.44;4946587;28;20078;-70
2021/10/24 00:22:26;;;;;;;22.38;13.65;;;;;;;7.17;100.00;102709.66;4950111;28;20491;-71
2021/10/24 00:24:55;;;;;;;25.10;15.02;;;;;;;7.26;100.00;102706.22;4949677;28;20142;-70
2021/10/24 00:27:23;;;;;;;24.08;14.30;;;;;;;7.23;100.00;102707.06;4950754;28;20047;-71
2021/10/24 00:29:55;;;;;;;28.90;15.98;;;;;;;7.31;100.00;102703.63;4936692;28;20354;-71
2021/10/24 00:32:23;;;;;;;24.52;14.55;;;;;;;7.28;100.00;102693.84;4947692;28;20099;-71
2021/10/24 00:34:51;;;;;;;21.77;13.38;;;;;;;7.30;100.00;102700.06;4948766;28;20054;-72
2021/10/24 00:37:19;;;;;;;24.75;15.10;;;;;;;7.31;100.00;102701.84;4948883;28;20076;-70
2021/10/24 00:39:48;;;;;;;24.00;15.15;;;;;;;7.40;100.00;102696.63;4951333;28;20253;-72
2021/10/24 00:42:28;;;;;;;25.25;14.15;;;;;;;7.40;100.00;102698.41;4950775;28;20495;-71
2021/10/24 00:44:56;;;;;;;22.00;14.60;;;;;;;7.43;100.00;102699.31;4951554;28;20062;-70
2021/10/24 00:47:24;;;;;;;22.98;14.27;;;;;;;7.44;100.00;102702.88;4941527;28;20065;-71
2021/10/24 00:49:53;;;;;;;25.02;14.90;;;;;;;7.44;100.00;102695.81;4948536;28;20055;-70
2021/10/24 00:52:21;;;;;;;23.55;14.60;;;;;;;7.41;100.00;102695.78;4945688;28;20047;-71
2021/10/24 00:54:50;;;;;;;27.63;16.02;;;;;;;7.48;100.00;102697.63;4948428;28;20058;-71
2021/10/24 00:57:18;;;;;;;26.13;15.23;;;;;;;7.46;100.00;102696.72;4952575;28;20055;-71
2021/10/24 00:59:48;;;;;;;23.48;13.90;;;;;;;7.45;100.00;102692.25;4953405;28;20118;-71
2021/10/24 01:02:16;;;;;;;24.63;14.23;;;;;;;7.48;100.00;102681.66;4958189;28;20467;-71
2021/10/24 01:04:44;;;;;;;25.38;15.73;;;;;;;7.48;100.00;102684.31;4948571;28;20169;-68
2021/10/24 01:07:17;;;;;;;24.48;14.57;;;;;;;7.48;100.00;102679.00;4956953;28;20114;-71
2021/10/24 01:09:46;;;;;;;27.58;15.02;;;;;;;7.48;100.00;102684.31;4952112;28;20043;-70
2021/10/24 01:12:15;;;;;;;22.00;14.00;;;;;;;7.51;100.00;102686.13;4946628;28;20085;-70
2021/10/24 01:14:43;;;;;;;27.40;15.88;;;;;;;7.53;100.00;102683.50;4952412;28;20082;-70
2021/10/24 01:17:12;;;;;;;22.35;14.65;;;;;;;7.53;100.00;102679.06;4949595;28;20055;-70
2021/10/24 01:19:40;;;;;;;24.38;14.40;;;;;;;7.53;100.00;102678.19;4954103;28;20511;-68
2021/10/24 01:22:10;;;;;;;26.30;14.57;;;;;;;7.52;100.00;102666.66;4956219;28;20086;-71
2021/10/24 01:24:38;;;;;;;26.27;15.35;;;;;;;7.52;100.00;102679.06;4951394;28;20062;-69
2021/10/24 01:27:07;;;;;;;20.77;14.45;;;;;;;7.46;100.00;102674.56;4950796;28;20049;-72
2021/10/24 01:29:35;;;;;;;26.88;15.27;;;;;;;7.37;100.00;102670.06;4950843;28;20038;-73
2021/10/24 01:32:04;;;;;;;23.80;14.30;;;;;;;7.29;100.00;102672.63;4951934;28;20503;-72
2021/10/24 01:34:32;;;;;;;25.55;13.55;;;;;;;7.20;100.00;102658.34;4950358;28;20082;-70
2021/10/24 01:37:00;;;;;;;22.95;13.95;;;;;;;7.11;100.00;102660.03;4951215;28;20591;-68
2021/10/24 01:39:29;;;;;;;23.48;13.15;;;;;;;7.07;100.00;102660.88;4953853;28;20098;-68
2021/10/24 01:41:57;;;;;;;25.33;14.15;;;;;;;7.00;100.00;102669.66;4950754;28;20047;-68
2021/10/24 01:44:25;;;;;;;24.17;13.73;;;;;;;6.91;100.00;102665.13;4952403;28;20057;-73
2021/10/24 01:46:54;;;;;;;22.08;13.15;;;;;;;6.84;100.00;102659.72;4950096;28;20065;-70
2021/10/24 01:49:22;;;;;;;26.88;14.00;;;;;;;6.79;100.00;102661.41;4952102;28;20134;-72
2021/10/24 01:51:50;;;;;;;23.05;13.52;;;;;;;6.67;100.00;102649.75;4947321;28;20518;-74
2021/10/24 01:54:18;;;;;;;25.83;13.93;;;;;;;6.69;100.00;102660.41;4949912;28;20649;-73
2021/10/24 01:56:47;;;;;;;22.98;14.20;;;;;;;6.63;100.00;102652.38;4951528;28;20295;-72
2021/10/24 01:59:15;;;;;;;24.73;15.23;;;;;;;6.62;100.00;102653.22;4956122;28;20513;-72
2021/10/24 02:01:43;;;;;;;24.15;14.20;;;;;;;6.64;100.00;102648.84;4951429;28;20082;-72
2021/10/24 02:04:14;;;;;;;26.55;15.40;;;;;;;6.59;100.00;102650.53;4952756;28;20051;-72
2021/10/24 02:06:42;;;;;;;25.02;13.88;;;;;;;6.55;100.00;102644.31;4952503;28;20054;-72
2021/10/24 02:09:10;;;;;;;28.08;14.88;;;;;;;6.52;100.00;102642.50;4948687;28;20055;-72
2021/10/24 02:11:38;;;;;;;28.42;16.38;;;;;;;6.49;100.00;102641.59;4953300;28;20424;-72
2021/10/24 02:14:08;;;;;;;28.30;16.05;;;;;;;6.49;100.00;102630.97;4952777;28;20055;-72
2021/10/24 02:16:36;;;;;;;23.67;15.20;;;;;;;6.43;100.00;102634.41;4951594;28;20058;-72
2021/10/24 02:19:04;;;;;;;22.30;14.75;;;;;;;6.49;100.00;102633.63;4953529;28;20054;-72
2021/10/24 02:21:31;;;;;;;26.00;15.07;;;;;;;6.41;100.00;102635.28;4951274;28;20059;-72
2021/10/24 02:23:59;;;;;;;27.60;16.00;;;;;;;6.36;100.00;102625.47;4952316;28;20133;-73
2021/10/24 02:26:28;;;;;;;28.35;14.63;;;;;;;6.40;100.00;102626.41;4948905;28;20051;-71
2021/10/24 02:28:55;;;;;;;23.55;14.52;;;;;;;6.31;100.00;102623.66;4950554;28;20057;-73
2021/10/24 02:31:25;;;;;;;27.15;15.73;;;;;;;6.26;100.00;102625.34;4952742;28;20047;-72
2021/10/24 02:33:53;;;;;;;24.90;13.88;;;;;;;6.25;100.00;102610.28;4951616;28;20065;-73
2021/10/24 02:36:21;;;;;;;24.02;15.00;;;;;;;6.23;100.00;102606.72;4950671;28;20258;-70
2021/10/24 02:38:49;;;;;;;25.10;15.57;;;;;;;6.20;100.00;102610.25;4949244;28;20507;-72
2021/10/24 02:41:17;;;;;;;24.40;14.90;;;;;;;6.14;100.00;102612.78;4951256;28;20054;-71
2021/10/24 02:43:45;;;;;;;24.58;14.40;;;;;;;6.07;100.00;102611.81;4948948;28;20145;-71
2021/10/24 02:46:13;;;;;;;23.85;14.20;;;;;;;6.03;100.00;102615.31;4952497;28;20047;-69
2021/10/24 02:48:42;;;;;;;27.70;15.88;;;;;;;6.06;100.00;102603.84;4953081;28;20051;-69
2021/10/24 02:51:10;;;;;;;29.58;15.60;;;;;;;5.98;100.00;102599.31;4948565;28;20126;-69
2021/10/24 02:53:38;;;;;;;26.27;15.32;;;;;;;5.98;100.00;102601.09;4943989;28;20058;-69
2021/10/24 02:56:06;;;;;;;24.35;14.98;;;;;;;5.93;100.00;102598.31;4946724;28;20133;-70
2021/10/24 02:58:34;;;;;;;32.67;16.27;;;;;;;5.89;100.00;102596.50;4948904;28;20558;-70
2021/10/24 03:01:02;;;;;;;23.58;14.35;;;;;;;5.87;100.00;102600.00;4951381;28;20062;-70
2021/10/24 03:03:30;;;;;;;25.38;15.32;;;;;;;5.84;100.00;102599.94;4950288;28;20046;-71
2021/10/24 03:06:00;;;;;;;23.98;15.07;;;;;;;5.81;100.00;102600.78;4950760;28;20133;-70
2021/10/24 03:08:28;;;;;;;23.48;15.18;;;;;;;5.81;100.00;102595.50;4950659;28;20074;-70
2021/10/24 03:10:56;;;;;;;26.38;15.00;;;;;;;5.80;100.00;102591.06;4948072;28;20579;-70
2021/10/24 03:13:25;;;;;;;25.67;16.48;;;;;;;5.80;100.00;102593.69;4946249;28;20283;-70
2021/10/24 03:15:53;;;;;;;25.20;14.98;;;;;;;5.76;100.00;102597.19;4952364;28;20251;-70
2021/10/24 03:18:21;;;;;;;25.45;14.13;;;;;;;5.77;100.00;102591.91;4947124;28;20142;-68
2021/10/24 03:20:49;;;;;;;24.90;15.75;;;;;;;5.72;100.00;102590.94;4949779;28;20052;-70
2021/10/24 03:23:18;;;;;;;26.42;16.05;;;;;;;5.70;100.00;102586.47;4947906;28;20461;-69
2021/10/24 03:25:46;;;;;;;27.77;15.88;;;;;;;5.70;100.00;102595.31;4954147;28;20114;-71
2021/10/24 03:28:14;;;;;;;27.80;16.30;;;;;;;5.65;100.00;102589.03;4949224;28;20062;-71
2021/10/24 03:30:42;;;;;;;30.80;16.50;;;;;;;5.60;100.00;102583.69;4947515;28;20480;-71
2021/10/24 03:33:10;;;;;;;25.23;15.90;;;;;;;5.67;100.00;102586.41;4951495;28;20146;-73
2021/10/24 03:35:38;;;;;;;26.00;15.82;;;;;;;5.59;100.00;102587.19;4948101;28;20436;-71
2021/10/24 03:38:06;;;;;;;26.67;16.73;;;;;;;5.60;100.00;102589.00;4948299;28;20047;-73
2021/10/24 03:40:35;;;;;;;25.77;15.32;;;;;;;5.53;100.00;102584.44;4950199;28;20504;-72
2021/10/24 03:43:04;;;;;;;26.58;16.40;;;;;;;5.52;100.00;102582.66;4946336;28;20133;-72
2021/10/24 03:45:32;;;;;;;27.25;16.40;;;;;;;5.59;100.00;102592.50;4943575;28;20047;-71
2021/10/24 03:48:00;;;;;;;27.52;15.57;;;;;;;5.53;100.00;102584.44;4952676;28;20059;-71
2021/10/24 03:50:28;;;;;;;29.23;17.23;;;;;;;5.58;100.00;102585.44;4948504;28;20043;-71
2021/10/24 03:52:56;;;;;;;25.15;15.90;;;;;;;5.58;100.00;102580.13;4942810;28;20187;-72
2021/10/24 03:55:24;;;;;;;31.00;16.77;;;;;;;5.61;100.00;102582.81;4950174;28;20058;-73
2021/10/24 03:57:53;;;;;;;31.25;16.38;;;;;;;5.60;100.00;102581.03;4950106;28;20101;-71
2021/10/24 04:00:21;;;;;;;30.15;16.55;;;;;;;5.59;100.00;102581.03;4953100;28;20074;-70
2021/10/24 04:02:53;;;;;;;30.20;17.17;;;;;;;5.54;100.00;102588.00;4948163;28;20067;-72
2021/10/24 04:05:23;;;;;;;28.30;16.90;;;;;;;5.53;100.00;102572.97;4946594;28;20558;-72
2021/10/24 04:07:51;;;;;;;26.30;15.93;;;;;;;5.53;100.00;102578.25;4951241;28;20677;-73
2021/10/24 04:10:20;;;;;;;28.83;15.77;;;;;;;5.49;100.00;102568.50;4948349;28;20076;-72
2021/10/24 04:12:49;;;;;;;27.00;16.48;;;;;;;5.49;100.00;102573.78;4947284;28;20066;-72
2021/10/24 04:15:19;;;;;;;27.63;16.67;;;;;;;5.44;100.00;102571.06;4944474;28;20054;-72
2021/10/24 04:17:47;;;;;;;25.77;16.08;;;;;;;5.44;100.00;102573.69;4954136;28;21490;-72
2021/10/24 04:20:18;;;;;;;31.58;16.13;;;;;;;5.39;100.00;102562.13;4941712;28;20125;-71
2021/10/24 04:22:47;;;;;;;33.13;16.65;;;;;;;5.33;100.00;102565.59;4952763;28;20051;-70
2021/10/24 04:25:16;;;;;;;28.20;15.85;;;;;;;5.32;100.00;102566.44;4948927;28;20089;-73
2021/10/24 04:27:43;;;;;;;31.17;17.05;;;;;;;5.31;100.00;102559.38;4945719;28;20137;-72
2021/10/24 04:30:12;;;;;;;24.98;15.65;;;;;;;5.32;100.00;102560.25;4949356;28;20261;-73
2021/10/24 04:32:43;;;;;;;30.73;16.25;;;;;;;5.31;100.00;102555.81;4949949;28;20057;-71
2021/10/24 04:35:12;;;;;;;23.77;14.77;;;;;;;5.31;100.00;102564.69;4951151;28;20477;-71
2021/10/24 04:37:40;;;;;;;27.92;14.65;;;;;;;5.32;100.00;102560.25;4944866;28;20370;-69
2021/10/24 04:40:09;;;;;;;27.50;14.88;;;;;;;5.35;100.00;102555.91;4947856;28;20047;-69
2021/10/24 04:42:37;;;;;;;24.30;14.15;;;;;;;5.31;100.00;102551.44;4949618;28;20046;-71
2021/10/24 04:45:07;;;;;;;31.73;16.35;;;;;;;5.36;100.00;102547.13;4948510;28;20051;-71
2021/10/24 04:47:36;;;;;;;26.45;15.18;;;;;;;5.38;100.00;102549.75;4948234;28;20042;-71
2021/10/24 04:50:08;;;;;;;26.33;15.93;;;;;;;5.42;100.00;102543.66;4947917;28;20063;-71
2021/10/24 04:52:37;;;;;;;27.33;14.40;;;;;;;5.47;100.00;102541.09;4947152;28;20130;-71
2021/10/24 04:55:06;;;;;;;27.77;14.68;;;;;;;5.47;100.00;102534.03;4950283;28;20050;-70
2021/10/24 04:57:35;;;;;;;25.48;15.13;;;;;;;5.45;100.00;102541.06;4949653;28;20058;-70
2021/10/24 05:00:03;;;;;;;25.60;13.88;;;;;;;5.46;100.00;102536.66;4950176;28;20068;-70
2021/10/24 05:02:31;;;;;;;22.75;13.52;;;;;;;5.47;100.00;102534.03;4947908;28;20496;-70
2021/10/24 05:04:59;;;;;;;24.95;14.02;;;;;;;5.49;100.00;102534.94;4948981;28;20817;-70
2021/10/24 05:07:29;;;;;;;26.67;15.52;;;;;;;5.54;100.00;102537.69;4946617;28;20051;-70
2021/10/24 05:09:56;;;;;;;27.27;14.60;;;;;;;5.52;100.00;102529.72;4949055;28;20197;-68
2021/10/24 05:12:24;;;;;;;26.08;14.15;;;;;;;5.47;100.00;102523.44;4941352;28;20195;-68
2021/10/24 05:14:52;;;;;;;26.67;13.60;;;;;;;5.44;100.00;102520.75;4951339;28;20090;-70
2021/10/24 05:17:20;;;;;;;23.88;13.65;;;;;;;5.40;100.00;102517.16;4950098;28;20518;-71
2021/10/24 05:19:48;;;;;;;22.55;13.48;;;;;;;5.43;100.00;102511.94;4949030;28;20046;-71
2021/10/24 05:22:16;;;;;;;26.88;14.50;;;;;;;5.49;100.00;102510.25;4950028;28;20059;-68
2021/10/24 05:24:45;;;;;;;24.05;14.13;;;;;;;5.45;100.00;102516.34;4946318;28;20055;-68
2021/10/24 05:27:13;;;;;;;24.05;12.98;;;;;;;5.48;100.00;102504.03;4950181;28;20055;-68
2021/10/24 05:29:40;;;;;;;26.65;14.15;;;;;;;5.49;100.00;102495.22;4948710;28;20087;-68
2021/10/24 05:32:09;;;;;;;26.70;12.68;;;;;;;5.48;100.00;102500.50;4947322;28;20678;-69
2021/10/24 05:34:37;;;;;;;21.25;13.38;;;;;;;5.44;100.00;102499.56;4950010;28;20058;-68
2021/10/24 05:37:05;;;;;;;20.08;12.45;;;;;;;5.45;100.00;102500.44;4948205;28;20059;-68
2021/10/24 05:39:33;;;;;;;20.52;12.35;;;;;;;5.41;100.00;102489.84;4948269;28;20063;-71
2021/10/24 05:42:03;;;;;;;24.75;13.25;;;;;;;5.41;100.00;102488.91;4945638;28;20076;-69
2021/10/24 05:44:31;;;;;;;20.88;12.90;;;;;;;5.42;100.00;102480.13;4952817;28;20383;-69
2021/10/24 05:46:59;;;;;;;24.75;13.73;;;;;;;5.37;100.00;102484.47;4953973;28;20239;-69
2021/10/24 05:49:27;;;;;;;21.98;12.27;;;;;;;5.35;100.00;102484.44;4953674;28;20562;-68
2021/10/24 05:51:55;;;;;;;22.55;13.20;;;;;;;5.37;100.00;102473.88;4949928;28;20134;-69
2021/10/24 05:54:22;;;;;;;24.35;13.38;;;;;;;5.37;100.00;102476.53;4945677;28;20501;-68
2021/10/24 05:56:50;;;;;;;22.60;12.07;;;;;;;5.35;100.00;102475.59;4949787;28;20082;-68
2021/10/24 05:59:19;;;;;;;22.25;12.30;;;;;;;5.33;100.00;102467.66;4948876;28;20334;-68
2021/10/24 06:01:47;;;;;;;23.08;13.82;;;;;;;5.30;100.00;102470.25;4954858;28;20136;-69
2021/10/24 06:04:15;;;;;;;20.70;12.38;;;;;;;5.26;100.00;102468.41;4951441;28;20059;-69
2021/10/24 06:06:44;;;;;;;20.48;12.85;;;;;;;5.27;100.00;102467.53;4951396;28;20522;-69
2021/10/24 06:09:13;;;;;;;23.30;12.85;;;;;;;5.20;100.00;102463.91;4949396;28;20174;-69
2021/10/24 06:11:55;;;;;;;21.65;12.90;;;;;;;5.24;100.00;102463.09;4949254;28;20078;-69
2021/10/24 06:14:25;;;;;;;23.20;13.60;;;;;;;5.30;100.00;102464.06;4949424;28;20058;-69
2021/10/24 06:16:53;;;;;;;20.45;12.18;;;;;;;5.26;100.00;102463.13;4950868;28;20057;-69
2021/10/24 06:19:21;;;;;;;22.15;12.20;;;;;;;5.23;100.00;102455.13;4953352;28;20057;-69
2021/10/24 06:21:49;;;;;;;18.95;11.88;;;;;;;5.23;100.00;102461.31;4955081;28;20536;-72
2021/10/24 06:24:17;;;;;;;22.63;12.73;;;;;;;5.18;100.00;102460.34;4949169;28;20054;-69
2021/10/24 06:26:45;;;;;;;24.63;13.27;;;;;;;5.19;100.00;102459.50;4950620;28;20505;-69
2021/10/24 06:29:14;;;;;;;21.27;12.30;;;;;;;5.19;100.00;102456.84;4949415;28;20398;-69
2021/10/24 06:31:43;;;;;;;26.55;12.60;;;;;;;5.19;100.00;102456.84;4952070;28;20082;-69
2021/10/24 06:34:12;;;;;;;24.23;11.93;;;;;;;5.16;100.00;102455.88;4947876;28;20631;-70
2021/10/24 06:36:41;;;;;;;22.75;12.82;;;;;;;5.15;100.00;102455.00;4952348;28;20471;-69
2021/10/24 06:39:10;;;;;;;23.17;11.23;;;;;;;5.17;100.00;102453.25;4950946;28;20130;-69
2021/10/24 06:41:38;;;;;;;24.15;12.98;;;;;;;5.29;100.00;102454.31;4948718;28;20054;-70
2021/10/24 06:44:07;;;;;;;20.90;12.80;;;;;;;5.26;100.00;102454.28;4951825;28;20049;-70
2021/10/24 06:46:34;;;;;;;19.55;11.93;;;;;;;5.28;100.00;102447.25;4949546;28;20533;-70
2021/10/24 06:49:04;;;;;;;21.52;12.93;;;;;;;5.26;100.00;102456.91;4951977;28;20147;-70
2021/10/24 06:51:32;;;;;;;22.23;11.77;;;;;;;5.27;100.00;102448.13;4949497;28;20074;-71
2021/10/24 06:54:00;;;;;;;24.33;12.32;;;;;;;5.29;100.00;102451.69;4945436;28;20294;-71
2021/10/24 06:56:28;;;;;;;17.92;11.15;;;;;;;5.28;100.00;102455.19;4950669;28;20063;-70
2021/10/24 06:58:56;;;;;;;20.77;12.02;;;;;;;5.28;100.00;102449.88;4950886;28;20571;-72
2021/10/24 07:01:24;;;;;;;20.83;11.55;;;;;;;5.27;100.00;102442.84;4949782;28;20055;-73
2021/10/24 07:03:52;;;;;;;20.92;11.20;;;;;;;5.27;100.00;102448.13;4948779;28;20151;-72
2021/10/24 07:06:23;;;;;;;17.63;11.10;;;;;;;5.33;100.00;102449.13;4951361;28;20050;-71
2021/10/24 07:08:51;;;;;;;19.48;11.57;;;;;;;5.36;100.00;102457.09;4947872;28;20059;-70
2021/10/24 07:11:19;;;;;;;20.63;12.10;;;;;;;5.34;100.00;102448.22;4944116;28;20078;-70
2021/10/24 07:13:46;;;;;;;18.25;11.15;;;;;;;5.37;100.00;102450.03;4946171;28;20571;-70
2021/10/24 07:16:14;;;;;;;21.75;12.20;;;;;;;5.40;100.00;102452.75;4953064;28;20072;-70
2021/10/24 07:18:42;;;;;;;22.13;11.98;;;;;;;5.41;100.00;102454.50;4949651;28;20511;-69
2021/10/24 07:21:10;;;;;;;20.70;11.40;;;;;;;5.47;100.00;102459.91;4946640;28;20059;-69
2021/10/24 07:23:40;;;;;;;19.40;11.25;;;;;;;5.46;100.00;102450.16;4948440;28;20174;-70
2021/10/24 07:26:08;;;;;;;22.60;11.30;;;;;;;5.46;100.00;102459.88;4947559;28;20050;-70
2021/10/24 07:28:36;;;;;;;21.05;11.00;;;;;;;5.50;100.00;102456.41;4950076;28;20772;-70
2021/10/24 07:31:23;;;;;;;23.13;11.70;;;;;;;5.54;100.00;102464.41;4945194;28;20043;-71
2021/10/24 07:33:53;;;;;;;20.65;11.77;;;;;;;5.56;100.00;102449.44;4956541;28;20073;-70
2021/10/24 07:36:21;;;;;;;19.92;11.75;;;;;;;5.64;100.00;102440.72;4952607;28;20150;-71
2021/10/24 07:38:51;;;;;;;20.67;11.68;;;;;;;5.67;100.00;102439.00;4948474;28;20117;-71
2021/10/24 07:41:23;;;;;;;20.35;11.18;;;;;;;5.66;100.00;102437.22;4950496;28;20109;-71
2021/10/24 07:43:50;;;;;;;22.08;11.50;;;;;;;5.72;100.00;102431.09;4948147;28;20050;-71
2021/10/24 07:46:19;;;;;;;21.60;10.93;;;;;;;5.76;100.00;102435.59;4950582;28;20142;-71
2021/10/24 07:48:47;;;;;;;22.38;11.65;;;;;;;5.78;100.00;102434.72;4946002;28;20066;-71
2021/10/24 07:51:15;;;;;;;17.48;11.32;;;;;;;5.80;100.00;102432.09;4950164;28;20520;-71
2021/10/24 07:53:43;;;;;;;23.90;11.73;;;;;;;5.86;100.00;102437.50;4948233;28;20050;-71
2021/10/24 07:56:12;;;;;;;22.35;11.50;;;;;;;5.91;100.00;102441.09;4948901;28;20163;-71
2021/10/24 07:58:40;;;;;;;20.35;10.52;;;;;;;5.93;100.00;102439.34;4948335;28;20077;-71
2021/10/24 08:01:09;;;;;;;20.25;11.25;;;;;;;5.97;100.00;102437.66;4946311;28;20039;-71
2021/10/24 08:03:37;;;;;;;18.38;11.30;;;;;;;6.02;100.00;102435.06;4950723;28;20120;-71
2021/10/24 08:06:06;;;;;;;20.30;11.75;;;;;;;6.07;100.00;102436.00;4946482;28;20298;-71
2021/10/24 08:08:34;;;;;;;22.90;11.48;;;;;;;6.10;100.00;102442.25;4951110;28;20174;-70
2021/10/24 08:11:03;;;;;;;20.25;10.32;;;;;;;6.12;100.00;102437.84;4948534;28;20055;-70
2021/10/24 08:13:32;;;;;;;18.38;10.15;;;;;;;6.15;100.00;102437.00;4943975;28;20082;-70
2021/10/24 08:16:01;;;;;;;17.30;10.27;;;;;;;6.23;100.00;102427.38;4948559;28;20515;-69
2021/10/24 08:18:29;;;;;;;17.75;9.40;;;;;;;6.28;100.00;102422.09;4948666;28;20404;-69
2021/10/24 08:20:57;;;;;;;18.65;10.48;;;;;;;6.43;99.22;102424.03;4949798;28;20050;-70
2021/10/24 08:23:27;;;;;;;16.85;9.98;;;;;;;6.51;97.49;102425.91;4945151;28;20047;-70
2021/10/24 08:25:55;;;;;;;14.80;9.50;;;;;;;6.61;98.44;102413.63;4952066;28;20147;-70
2021/10/24 08:28:23;;;;;;;17.48;9.70;;;;;;;6.72;98.38;102408.41;4948303;28;20157;-70
2021/10/24 08:30:53;;;;;;;16.98;9.55;;;;;;;6.87;98.44;102419.16;4952582;28;20050;-70
2021/10/24 08:33:21;;;;;;;16.75;9.75;;;;;;;7.02;95.82;102412.19;4950896;28;20055;-70
2021/10/24 08:35:50;;;;;;;21.92;10.25;;;;;;;7.15;95.34;102410.50;4947676;28;20603;-70
2021/10/24 08:38:18;;;;;;;16.38;9.90;;;;;;;7.27;95.64;102408.84;4950471;28;20444;-69
2021/10/24 08:43:40;;;;;;;17.75;10.05;;;;;;;7.64;94.26;102397.53;4952041;28;20137;-69
2021/10/24 08:46:12;;;;;;;21.88;10.77;;;;;;;7.73;91.59;102394.03;4946214;28;20074;-68
2021/10/24 08:48:40;;;;;;;21.40;13.80;;;;;;;7.81;91.45;102390.50;4952068;28;20070;-70
2021/10/24 08:51:10;;;;;;;27.30;15.30;;;;;;;7.97;92.34;102382.63;4948773;28;20149;-70
2021/10/24 08:53:42;;;;;;;23.33;17.15;;;;;;;8.04;88.99;102382.63;4944683;28;20054;-68
2021/10/24 08:56:15;;;;;;;30.45;25.77;;;;;;;8.12;87.59;102389.75;4948505;28;20055;-68
2021/10/24 08:58:43;;;;;;;18.00;9.25;;;;;;;8.35;89.04;102387.16;4945971;28;20105;-70
2021/10/24 09:01:13;;;;;;;19.48;10.15;;;;;;;8.39;87.01;102380.94;4948485;28;20062;-69
2021/10/24 09:04:02;;;;;;;14.18;8.63;;;;;;;8.53;87.30;102384.56;4946614;28;20723;-71
2021/10/24 09:06:47;;;;;;;15.65;9.10;;;;;;;8.73;88.00;102386.31;4951563;28;20051;-71
2021/10/24 09:09:18;;;;;;;15.00;9.27;;;;;;;8.71;85.36;102383.66;4950167;28;20085;-71
2021/10/24 09:11:59;;;;;;;16.98;11.70;;;;;;;8.78;84.93;102377.47;4948290;28;20062;-70
2021/10/24 09:14:38;;;;;;;14.48;8.45;;;;;;;8.99;85.59;102367.69;4949696;28;20082;-69
2021/10/24 09:17:09;;;;;;;17.23;10.35;;;;;;;9.11;83.84;102369.47;4948132;28;20131;-69
2021/10/24 09:19:38;;;;;;;18.42;11.00;;;;;;;9.11;84.94;102369.47;4952838;28;20115;-69
2021/10/24 09:22:18;;;;;;;20.60;11.35;;;;;;;9.22;82.92;102364.97;4954040;28;20153;-69
2021/10/24 09:25:17;;;;;;;27.38;16.70;;;;;;;9.27;82.65;102370.31;4953916;28;20106;-69
2021/10/24 09:27:48;;;;;;;18.17;10.88;;;;;;;9.21;80.75;102370.31;4951819;28;20531;-68
2021/10/24 09:30:21;;;;;;;15.70;10.02;;;;;;;9.23;80.61;102371.19;4953791;28;20051;-69
2021/10/24 09:32:54;;;;;;;14.40;9.50;;;;;;;9.23;80.37;102357.88;4948410;28;20054;-68
2021/10/24 09:35:27;;;;;;;15.40;8.68;;;;;;;9.51;80.69;102362.22;4954156;28;20133;-69
2021/10/24 09:37:58;;;;;;;14.98;7.80;;;;;;;9.67;81.78;102354.19;4953344;28;20062;-68
2021/10/24 09:40:29;;;;;;;15.63;8.63;;;;;;;9.61;79.54;102356.88;4951549;28;20085;-68
2021/10/24 09:43:18;;;;;;;17.02;8.95;;;;;;;9.68;78.82;102338.19;4952424;28;20057;-69
2021/10/24 09:45:48;;;;;;;15.98;8.15;;;;;;;9.79;79.26;102345.25;4954783;28;20856;-69
2021/10/24 09:48:19;;;;;;;31.45;19.05;;;;;;;9.91;78.33;102343.41;4953353;28;20182;-69
2021/10/24 09:50:51;;;;;;;66.28;60.40;;;;;;;9.99;78.37;102350.47;4949819;28;20184;-67
2021/10/24 09:53:22;;;;;;;14.95;8.65;;;;;;;10.06;77.78;102346.88;4947739;28;20468;-67
2021/10/24 09:56:06;;;;;;;211.50;77.95;;;;;;;10.04;78.03;102346.88;4950718;28;20054;-70
2021/10/24 09:58:35;;;;;;;138.25;50.28;;;;;;;10.30;78.21;102351.19;4954246;28;20077;-67
2021/10/24 10:01:05;;;;;;;106.60;36.92;;;;;;;10.53;78.12;102348.38;4956952;28;20055;-69
2021/10/24 10:03:35;;;;;;;125.30;43.25;;;;;;;10.58;77.19;102351.00;4951788;28;20368;-69
2021/10/24 10:06:04;;;;;;;32.97;17.42;;;;;;;10.27;76.63;102345.88;4951834;28;20050;-67
2021/10/24 10:08:43;;;;;;;30.63;16.33;;;;;;;10.34;76.18;102349.41;4952808;28;20506;-66
2021/10/24 10:11:20;;;;;;;20.40;13.02;;;;;;;10.20;77.02;102344.13;4954289;28;20447;-67
2021/10/24 10:13:54;;;;;;;17.33;10.38;;;;;;;10.21;76.29;102351.22;4952344;28;20047;-67
2021/10/24 10:16:31;;;;;;;18.67;11.07;;;;;;;10.34;75.85;102339.63;4953132;28;20059;-67
2021/10/24 10:19:12;;;;;;;18.27;9.60;;;;;;;10.61;76.21;102337.66;4953287;28;20569;-69
2021/10/24 10:21:43;;;;;;;15.45;8.73;;;;;;;10.67;75.29;102334.03;4954430;28;20042;-68
2021/10/24 10:24:32;;;;;;;22.52;13.70;;;;;;;10.75;75.72;102340.19;4953767;28;20086;-67
2021/10/24 10:27:00;;;;;;;18.05;10.90;;;;;;;11.00;76.30;102332.84;4950714;28;20503;-68
2021/10/24 10:29:50;;;;;;;16.13;9.07;;;;;;;11.01;75.22;102345.28;4954935;28;20177;-68
2021/10/24 10:32:19;;;;;;;15.35;8.38;;;;;;;11.03;75.45;102335.44;4952500;28;20054;-68
2021/10/24 10:35:09;;;;;;;12.98;8.27;;;;;;;10.91;74.11;102338.25;4952772;28;20085;-68
2021/10/24 10:37:48;;;;;;;14.95;8.35;;;;;;;11.39;75.63;102338.63;4955954;28;20078;-69
2021/10/24 10:40:23;;;;;;;17.73;9.20;;;;;;;10.90;74.37;102332.03;4952322;28;20126;-67
2021/10/24 10:42:54;;;;;;;13.95;8.23;;;;;;;11.29;74.41;102326.25;4951791;28;20492;-69
2021/10/24 10:45:46;;;;;;;14.20;7.97;;;;;;;11.48;73.42;102314.47;4955963;28;20204;-69
2021/10/24 10:48:30;;;;;;;17.08;9.18;;;;;;;11.49;72.78;102323.38;4951428;28;20159;-69
2021/10/24 10:51:02;;;;;;;15.55;8.95;;;;;;;11.44;73.18;102325.22;4951811;28;20066;-69
2021/10/24 10:54:01;;;;;;;15.70;8.85;;;;;;;11.56;73.48;102317.03;4947416;28;20053;-70
2021/10/24 10:56:41;;;;;;;13.20;8.23;;;;;;;11.56;72.91;102322.38;4941777;28;20713;-68
2021/10/24 10:59:32;;;;;;;17.50;11.13;;;;;;;11.68;72.27;102324.91;4950961;28;20090;-69
2021/10/24 11:02:20;;;;;;;14.27;9.43;;;;;;;11.86;72.43;102322.91;4950596;28;20059;-69
2021/10/24 11:04:50;;;;;;;20.55;15.00;;;;;;;11.53;72.43;102319.78;4941714;28;20542;-71
2021/10/24 11:07:39;;;;;;;29.33;22.13;;;;;;;11.35;73.10;102318.19;4950382;28;20074;-69
2021/10/24 11:10:10;;;;;;;20.77;12.57;;;;;;;11.61;72.41;102319.66;4951556;28;20050;-68
2021/10/24 11:12:43;;;;;;;22.80;13.60;;;;;;;11.69;71.47;102317.78;4946083;28;20043;-69
2021/10/24 11:15:29;;;;;;;29.13;18.03;;;;;;;11.34;70.47;102319.09;4950940;28;20065;-69
2021/10/24 11:18:05;;;;;;;19.90;12.57;;;;;;;11.68;71.22;102305.28;4948856;28;20174;-71
2021/10/24 11:20:47;;;;;;;15.15;10.20;;;;;;;11.87;71.26;102306.81;4950163;28;20086;-70
2021/10/24 11:23:20;;;;;;;15.30;9.50;;;;;;;12.00;70.64;102315.56;4949520;28;20043;-68
2021/10/24 11:25:53;;;;;;;12.70;7.45;;;;;;;11.73;70.13;102312.38;4948215;28;20328;-71
2021/10/24 11:28:28;;;;;;;14.57;8.57;;;;;;;11.71;70.21;102306.16;4946437;28;20059;-70